sensor_id;sensor_type;location;lat;lon;timestamp;P1;durP1;ratioP1;P2;durP2;ratioP2
1719;SDS011;857;52.872;9.692;2024-01-15T00:02:03;6.07;;;3.10;;
1719;SDS011;857;52.872;9.692;2024-01-15T00:04:31;5.00;;;2.63;;
1719;SDS011;857;52.872;9.692;2024-01-15T00:06:59;5.53;;;2.93;;
1719;SDS011;857;52.872;9.692;2024-01-15T00:09:28;5.37;;;2.43;;
1719;SDS011;857;52.872;9.692;2024-01-15T00:11:55;6.00;;;3.17;;
1719;SDS011;857;52.872;9.692;2024-01-15T00:14:23;5.90;;;2.63;;
1719;SDS011;857;52.872;9.692;2024-01-15T00:16:51;4.00;;;2.73;;
1719;SDS011;857;52.872;9.692;2024-01-15T00:19:20;4.10;;;2.33;;
1719;SDS011;857;52.872;9.692;2024-01-15T00:21:49;4.90;;;2.37;;
1719;SDS011;857;52.872;9.692;2024-01-15T00:24:17;5.60;;;2.70;;
1719;SDS011;857;52.872;9.692;2024-01-15T00:26:46;4.37;;;2.20;;
1719;SDS011;857;52.872;9.692;2024-01-15T00:29:14;5.50;;;2.27;;
1719;SDS011;857;52.872;9.692;2024-01-15T00:31:41;6.63;;;2.07;;
1719;SDS011;857;52.872;9.692;2024-01-15T00:34:09;5.80;;;2.40;;
1719;SDS011;857;52.872;9.692;2024-01-15T00:36:37;4.23;;;2.80;;
1719;SDS011;857;52.872;9.692;2024-01-15T00:39:04;4.60;;;1.87;;
1719;SDS011;857;52.872;9.692;2024-01-15T00:41:32;7.60;;;3.20;;
1719;SDS011;857;52.872;9.692;2024-01-15T00:44:01;5.20;;;2.20;;
1719;SDS011;857;52.872;9.692;2024-01-15T00:46:29;6.90;;;2.17;;
1719;SDS011;857;52.872;9.692;2024-01-15T00:48:57;5.17;;;2.27;;
1719;SDS011;857;52.872;9.692;2024-01-15T00:51:24;5.10;;;2.73;;
1719;SDS011;857;52.872;9.692;2024-01-15T00:53:52;7.97;;;2.10;;
1719;SDS011;857;52.872;9.692;2024-01-15T00:56:20;7.63;;;1.60;;
1719;SDS011;857;52.872;9.692;2024-01-15T00:58:47;8.70;;;1.90;;
1719;SDS011;857;52.872;9.692;2024-01-15T01:01:17;5.67;;;2.03;;
1719;SDS011;857;52.872;9.692;2024-01-15T01:03:44;6.40;;;2.10;;
1719;SDS011;857;52.872;9.692;2024-01-15T01:06:12;7.30;;;2.17;;
1719;SDS011;857;52.872;9.692;2024-01-15T01:08:46;4.83;;;1.93;;
1719;SDS011;857;52.872;9.692;2024-01-15T01:11:14;3.60;;;1.37;;
1719;SDS011;857;52.872;9.692;2024-01-15T01:13:42;6.50;;;2.00;;
1719;SDS011;857;52.872;9.692;2024-01-15T01:16:09;7.20;;;1.80;;
1719;SDS011;857;52.872;9.692;2024-01-15T01:18:37;5.60;;;1.37;;
1719;SDS011;857;52.872;9.692;2024-01-15T01:21:05;7.37;;;1.90;;
1719;SDS011;857;52.872;9.692;2024-01-15T01:23:33;5.80;;;1.40;;
1719;SDS011;857;52.872;9.692;2024-01-15T01:26:02;5.47;;;1.20;;
1719;SDS011;857;52.872;9.692;2024-01-15T01:28:30;6.60;;;1.40;;
1719;SDS011;857;52.872;9.692;2024-01-15T01:30:58;2.43;;;1.37;;
1719;SDS011;857;52.872;9.692;2024-01-15T01:33:26;4.10;;;0.90;;
1719;SDS011;857;52.872;9.692;2024-01-15T01:35:54;3.20;;;1.37;;
1719;SDS011;857;52.872;9.692;2024-01-15T01:38:22;4.80;;;1.37;;
1719;SDS011;857;52.872;9.692;2024-01-15T01:40:49;2.93;;;1.13;;
1719;SDS011;857;52.872;9.692;2024-01-15T01:43:19;1.47;;;0.80;;
1719;SDS011;857;52.872;9.692;2024-01-15T01:45:46;3.07;;;0.97;;
1719;SDS011;857;52.872;9.692;2024-01-15T01:48:14;2.73;;;1.40;;
1719;SDS011;857;52.872;9.692;2024-01-15T01:50:42;3.63;;;1.53;;
1719;SDS011;857;52.872;9.692;2024-01-15T01:53:09;4.40;;;1.10;;
1719;SDS011;857;52.872;9.692;2024-01-15T01:55:37;7.93;;;1.00;;
1719;SDS011;857;52.872;9.692;2024-01-15T01:58:05;5.37;;;1.20;;
1719;SDS011;857;52.872;9.692;2024-01-15T02:00:35;4.80;;;1.47;;
1719;SDS011;857;52.872;9.692;2024-01-15T02:03:03;4.97;;;1.13;;
1719;SDS011;857;52.872;9.692;2024-01-15T02:05:30;4.27;;;0.83;;
1719;SDS011;857;52.872;9.692;2024-01-15T02:07:58;2.70;;;1.00;;
1719;SDS011;857;52.872;9.692;2024-01-15T02:10:26;4.50;;;1.30;;
1719;SDS011;857;52.872;9.692;2024-01-15T02:12:54;2.80;;;1.00;;
1719;SDS011;857;52.872;9.692;2024-01-15T02:15:21;1.03;;;0.67;;
1719;SDS011;857;52.872;9.692;2024-01-15T02:18:00;2.30;;;0.60;;
1719;SDS011;857;52.872;9.692;2024-01-15T02:20:29;3.73;;;0.97;;
1719;SDS011;857;52.872;9.692;2024-01-15T02:23:03;4.40;;;1.37;;
1719;SDS011;857;52.872;9.692;2024-01-15T02:25:31;1.70;;;1.00;;
1719;SDS011;857;52.872;9.692;2024-01-15T02:27:59;2.20;;;1.07;;
1719;SDS011;857;52.872;9.692;2024-01-15T02:30:27;8.67;;;1.07;;
1719;SDS011;857;52.872;9.692;2024-01-15T02:32:56;3.70;;;1.33;;
1719;SDS011;857;52.872;9.692;2024-01-15T02:35:23;8.93;;;1.30;;
1719;SDS011;857;52.872;9.692;2024-01-15T02:37:51;2.47;;;1.00;;
1719;SDS011;857;52.872;9.692;2024-01-15T02:40:20;1.77;;;0.93;;
1719;SDS011;857;52.872;9.692;2024-01-15T02:42:48;2.53;;;1.10;;
1719;SDS011;857;52.872;9.692;2024-01-15T02:45:16;2.00;;;0.53;;
1719;SDS011;857;52.872;9.692;2024-01-15T02:47:44;2.53;;;0.70;;
1719;SDS011;857;52.872;9.692;2024-01-15T02:50:11;3.93;;;1.03;;
1719;SDS011;857;52.872;9.692;2024-01-15T02:52:39;4.90;;;1.17;;
1719;SDS011;857;52.872;9.692;2024-01-15T02:55:07;5.27;;;1.00;;
1719;SDS011;857;52.872;9.692;2024-01-15T02:57:36;2.57;;;0.83;;
1719;SDS011;857;52.872;9.692;2024-01-15T03:00:04;3.60;;;0.93;;
1719;SDS011;857;52.872;9.692;2024-01-15T03:02:32;3.27;;;0.90;;
1719;SDS011;857;52.872;9.692;2024-01-15T03:05:00;4.57;;;1.10;;
1719;SDS011;857;52.872;9.692;2024-01-15T03:07:28;5.70;;;0.90;;
1719;SDS011;857;52.872;9.692;2024-01-15T03:09:55;1.10;;;0.70;;
1719;SDS011;857;52.872;9.692;2024-01-15T03:12:23;1.03;;;0.50;;
1719;SDS011;857;52.872;9.692;2024-01-15T03:14:52;5.27;;;0.90;;
1719;SDS011;857;52.872;9.692;2024-01-15T03:17:20;6.30;;;1.47;;
1719;SDS011;857;52.872;9.692;2024-01-15T03:19:47;3.13;;;0.83;;
1719;SDS011;857;52.872;9.692;2024-01-15T03:22:16;5.97;;;1.10;;
1719;SDS011;857;52.872;9.692;2024-01-15T03:24:44;1.03;;;0.60;;
1719;SDS011;857;52.872;9.692;2024-01-15T03:27:11;4.43;;;1.80;;
1719;SDS011;857;52.872;9.692;2024-01-15T03:29:39;5.27;;;1.50;;
1719;SDS011;857;52.872;9.692;2024-01-15T03:32:08;4.37;;;1.00;;
1719;SDS011;857;52.872;9.692;2024-01-15T03:34:36;3.20;;;1.17;;
1719;SDS011;857;52.872;9.692;2024-01-15T03:37:04;3.00;;;1.00;;
1719;SDS011;857;52.872;9.692;2024-01-15T03:39:32;2.07;;;0.97;;
1719;SDS011;857;52.872;9.692;2024-01-15T03:41:59;2.80;;;1.10;;
1719;SDS011;857;52.872;9.692;2024-01-15T03:44:27;4.73;;;0.90;;
1719;SDS011;857;52.872;9.692;2024-01-15T03:46:55;4.20;;;1.30;;
1719;SDS011;857;52.872;9.692;2024-01-15T03:49:25;2.93;;;0.80;;
1719;SDS011;857;52.872;9.692;2024-01-15T03:51:52;3.10;;;0.77;;
1719;SDS011;857;52.872;9.692;2024-01-15T03:54:20;3.30;;;1.00;;
1719;SDS011;857;52.872;9.692;2024-01-15T03:56:48;1.57;;;0.80;;
1719;SDS011;857;52.872;9.692;2024-01-15T03:59:15;3.83;;;1.20;;
1719;SDS011;857;52.872;9.692;2024-01-15T04:01:47;5.97;;;1.10;;
1719;SDS011;857;52.872;9.692;2024-01-15T04:04:16;5.80;;;1.60;;
1719;SDS011;857;52.872;9.692;2024-01-15T04:06:45;4.00;;;1.20;;
1719;SDS011;857;52.872;9.692;2024-01-15T04:09:13;2.30;;;1.30;;
1719;SDS011;857;52.872;9.692;2024-01-15T04:11:40;3.60;;;0.90;;
1719;SDS011;857;52.872;9.692;2024-01-15T04:14:08;3.20;;;1.07;;
1719;SDS011;857;52.872;9.692;2024-01-15T04:16:37;3.63;;;0.97;;
1719;SDS011;857;52.872;9.692;2024-01-15T04:19:04;2.23;;;0.80;;
1719;SDS011;857;52.872;9.692;2024-01-15T04:21:32;1.70;;;0.70;;
1719;SDS011;857;52.872;9.692;2024-01-15T04:24:01;2.43;;;0.40;;
1719;SDS011;857;52.872;9.692;2024-01-15T04:26:29;3.17;;;1.20;;
1719;SDS011;857;52.872;9.692;2024-01-15T04:28:56;6.83;;;1.17;;
1719;SDS011;857;52.872;9.692;2024-01-15T04:31:25;4.20;;;0.63;;
1719;SDS011;857;52.872;9.692;2024-01-15T04:33:52;2.30;;;0.83;;
1719;SDS011;857;52.872;9.692;2024-01-15T04:36:20;2.83;;;0.77;;
1719;SDS011;857;52.872;9.692;2024-01-15T04:38:48;4.53;;;0.77;;
1719;SDS011;857;52.872;9.692;2024-01-15T04:41:17;5.50;;;0.80;;
1719;SDS011;857;52.872;9.692;2024-01-15T04:43:45;0.57;;;0.57;;
1719;SDS011;857;52.872;9.692;2024-01-15T04:46:12;9.50;;;1.20;;
1719;SDS011;857;52.872;9.692;2024-01-15T04:48:40;4.43;;;0.90;;
1719;SDS011;857;52.872;9.692;2024-01-15T04:51:08;1.83;;;0.60;;
1719;SDS011;857;52.872;9.692;2024-01-15T04:53:36;1.90;;;0.67;;
1719;SDS011;857;52.872;9.692;2024-01-15T04:56:04;3.07;;;0.90;;
1719;SDS011;857;52.872;9.692;2024-01-15T04:58:33;3.93;;;1.30;;
1719;SDS011;857;52.872;9.692;2024-01-15T05:01:00;0.97;;;0.57;;
1719;SDS011;857;52.872;9.692;2024-01-15T05:03:29;7.20;;;0.80;;
1719;SDS011;857;52.872;9.692;2024-01-15T05:05:57;6.30;;;1.07;;
1719;SDS011;857;52.872;9.692;2024-01-15T05:08:24;4.23;;;1.30;;
1719;SDS011;857;52.872;9.692;2024-01-15T05:10:52;7.80;;;1.10;;
1719;SDS011;857;52.872;9.692;2024-01-15T05:13:20;5.13;;;1.00;;
1719;SDS011;857;52.872;9.692;2024-01-15T05:15:49;7.80;;;2.47;;
1719;SDS011;857;52.872;9.692;2024-01-15T05:18:16;7.13;;;1.20;;
1719;SDS011;857;52.872;9.692;2024-01-15T05:20:44;4.57;;;1.37;;
1719;SDS011;857;52.872;9.692;2024-01-15T05:23:12;4.83;;;1.30;;
1719;SDS011;857;52.872;9.692;2024-01-15T05:25:39;3.33;;;0.87;;
1719;SDS011;857;52.872;9.692;2024-01-15T05:28:07;7.03;;;1.73;;
1719;SDS011;857;52.872;9.692;2024-01-15T05:30:35;2.40;;;1.43;;
1719;SDS011;857;52.872;9.692;2024-01-15T05:33:04;2.30;;;0.90;;
1719;SDS011;857;52.872;9.692;2024-01-15T05:35:32;3.97;;;0.87;;
1719;SDS011;857;52.872;9.692;2024-01-15T05:37:59;2.43;;;0.70;;
1719;SDS011;857;52.872;9.692;2024-01-15T05:40:28;3.23;;;1.13;;
1719;SDS011;857;52.872;9.692;2024-01-15T05:42:56;12.90;;;0.87;;
1719;SDS011;857;52.872;9.692;2024-01-15T05:45:25;3.47;;;1.37;;
1719;SDS011;857;52.872;9.692;2024-01-15T05:47:53;1.90;;;0.50;;
1719;SDS011;857;52.872;9.692;2024-01-15T05:50:22;3.37;;;0.67;;
1719;SDS011;857;52.872;9.692;2024-01-15T05:52:50;2.83;;;1.20;;
1719;SDS011;857;52.872;9.692;2024-01-15T05:55:18;3.07;;;0.90;;
1719;SDS011;857;52.872;9.692;2024-01-15T05:57:46;4.53;;;0.80;;
1719;SDS011;857;52.872;9.692;2024-01-15T06:00:14;1.27;;;0.60;;
1719;SDS011;857;52.872;9.692;2024-01-15T06:02:42;10.63;;;4.40;;
1719;SDS011;857;52.872;9.692;2024-01-15T06:05:10;1.83;;;0.90;;
1719;SDS011;857;52.872;9.692;2024-01-15T06:07:39;3.10;;;1.10;;
1719;SDS011;857;52.872;9.692;2024-01-15T06:10:07;1.33;;;0.87;;
1719;SDS011;857;52.872;9.692;2024-01-15T06:12:35;2.67;;;0.77;;
1719;SDS011;857;52.872;9.692;2024-01-15T06:15:03;5.20;;;1.10;;
1719;SDS011;857;52.872;9.692;2024-01-15T06:17:30;2.93;;;1.10;;
1719;SDS011;857;52.872;9.692;2024-01-15T06:19:58;3.53;;;1.67;;
1719;SDS011;857;52.872;9.692;2024-01-15T06:22:26;3.60;;;1.03;;
1719;SDS011;857;52.872;9.692;2024-01-15T06:24:55;8.30;;;2.03;;
1719;SDS011;857;52.872;9.692;2024-01-15T06:27:23;7.17;;;1.13;;
1719;SDS011;857;52.872;9.692;2024-01-15T06:29:50;2.93;;;1.20;;
1719;SDS011;857;52.872;9.692;2024-01-15T06:32:18;2.80;;;1.30;;
1719;SDS011;857;52.872;9.692;2024-01-15T06:34:46;0.83;;;0.67;;
1719;SDS011;857;52.872;9.692;2024-01-15T06:37:13;1.20;;;1.00;;
1719;SDS011;857;52.872;9.692;2024-01-15T06:39:41;4.23;;;1.17;;
1719;SDS011;857;52.872;9.692;2024-01-15T06:42:10;2.50;;;1.17;;
1719;SDS011;857;52.872;9.692;2024-01-15T06:44:38;3.00;;;1.13;;
1719;SDS011;857;52.872;9.692;2024-01-15T06:47:06;4.40;;;0.77;;
1719;SDS011;857;52.872;9.692;2024-01-15T06:49:33;3.00;;;1.17;;
1719;SDS011;857;52.872;9.692;2024-01-15T06:52:01;3.57;;;1.23;;
1719;SDS011;857;52.872;9.692;2024-01-15T06:54:29;4.10;;;1.40;;
1719;SDS011;857;52.872;9.692;2024-01-15T06:56:56;2.83;;;1.20;;
1719;SDS011;857;52.872;9.692;2024-01-15T06:59:25;4.43;;;1.23;;
1719;SDS011;857;52.872;9.692;2024-01-15T07:01:53;3.80;;;1.00;;
1719;SDS011;857;52.872;9.692;2024-01-15T07:04:21;5.57;;;1.20;;
1719;SDS011;857;52.872;9.692;2024-01-15T07:06:49;4.07;;;1.83;;
1719;SDS011;857;52.872;9.692;2024-01-15T07:09:17;4.37;;;0.80;;
1719;SDS011;857;52.872;9.692;2024-01-15T07:11:45;2.57;;;1.20;;
1719;SDS011;857;52.872;9.692;2024-01-15T07:14:13;9.73;;;1.53;;
1719;SDS011;857;52.872;9.692;2024-01-15T07:16:42;6.07;;;1.83;;
1719;SDS011;857;52.872;9.692;2024-01-15T07:19:09;6.00;;;1.27;;
1719;SDS011;857;52.872;9.692;2024-01-15T07:21:37;5.27;;;1.47;;
1719;SDS011;857;52.872;9.692;2024-01-15T07:24:06;3.37;;;1.30;;
1719;SDS011;857;52.872;9.692;2024-01-15T07:26:33;5.73;;;1.80;;
1719;SDS011;857;52.872;9.692;2024-01-15T07:29:01;4.20;;;1.47;;
1719;SDS011;857;52.872;9.692;2024-01-15T07:31:29;3.50;;;1.00;;
1719;SDS011;857;52.872;9.692;2024-01-15T07:33:58;5.10;;;1.17;;
1719;SDS011;857;52.872;9.692;2024-01-15T07:36:25;4.37;;;1.70;;
1719;SDS011;857;52.872;9.692;2024-01-15T07:38:53;1.20;;;1.10;;
1719;SDS011;857;52.872;9.692;2024-01-15T07:41:21;3.17;;;1.17;;
1719;SDS011;857;52.872;9.692;2024-01-15T07:43:49;3.37;;;1.17;;
1719;SDS011;857;52.872;9.692;2024-01-15T07:46:16;5.40;;;1.60;;
1719;SDS011;857;52.872;9.692;2024-01-15T07:48:44;1.67;;;1.20;;
1719;SDS011;857;52.872;9.692;2024-01-15T07:51:13;3.43;;;1.17;;
1719;SDS011;857;52.872;9.692;2024-01-15T07:53:41;4.17;;;1.97;;
1719;SDS011;857;52.872;9.692;2024-01-15T07:56:08;1.53;;;1.20;;
1719;SDS011;857;52.872;9.692;2024-01-15T07:58:36;2.47;;;1.37;;
1719;SDS011;857;52.872;9.692;2024-01-15T08:01:04;3.30;;;0.90;;
1719;SDS011;857;52.872;9.692;2024-01-15T08:03:32;1.90;;;0.80;;
1719;SDS011;857;52.872;9.692;2024-01-15T08:05:59;2.33;;;0.80;;
1719;SDS011;857;52.872;9.692;2024-01-15T08:08:28;6.23;;;1.10;;
1719;SDS011;857;52.872;9.692;2024-01-15T08:10:56;1.53;;;0.80;;
1719;SDS011;857;52.872;9.692;2024-01-15T08:13:26;3.80;;;0.90;;
1719;SDS011;857;52.872;9.692;2024-01-15T08:15:54;1.87;;;0.80;;
1719;SDS011;857;52.872;9.692;2024-01-15T08:18:22;3.53;;;1.33;;
1719;SDS011;857;52.872;9.692;2024-01-15T08:20:49;1.33;;;0.67;;
1719;SDS011;857;52.872;9.692;2024-01-15T08:23:17;0.97;;;0.80;;
1719;SDS011;857;52.872;9.692;2024-01-15T08:25:47;1.60;;;1.27;;
1719;SDS011;857;52.872;9.692;2024-01-15T08:28:16;2.43;;;1.03;;
1719;SDS011;857;52.872;9.692;2024-01-15T08:30:44;3.30;;;1.20;;
1719;SDS011;857;52.872;9.692;2024-01-15T08:33:12;1.63;;;1.07;;
1719;SDS011;857;52.872;9.692;2024-01-15T08:35:40;3.87;;;1.40;;
1719;SDS011;857;52.872;9.692;2024-01-15T08:38:07;4.00;;;2.27;;
1719;SDS011;857;52.872;9.692;2024-01-15T08:40:35;4.40;;;2.10;;
1719;SDS011;857;52.872;9.692;2024-01-15T08:43:04;2.57;;;1.20;;
1719;SDS011;857;52.872;9.692;2024-01-15T08:45:33;2.40;;;1.80;;
1719;SDS011;857;52.872;9.692;2024-01-15T08:48:00;3.70;;;1.40;;
1719;SDS011;857;52.872;9.692;2024-01-15T08:50:29;2.33;;;1.37;;
1719;SDS011;857;52.872;9.692;2024-01-15T08:52:57;4.70;;;1.60;;
1719;SDS011;857;52.872;9.692;2024-01-15T08:55:25;1.57;;;1.30;;
1719;SDS011;857;52.872;9.692;2024-01-15T08:57:52;5.00;;;1.30;;
1719;SDS011;857;52.872;9.692;2024-01-15T09:00:21;5.13;;;1.47;;
1719;SDS011;857;52.872;9.692;2024-01-15T09:02:49;3.43;;;1.17;;
1719;SDS011;857;52.872;9.692;2024-01-15T09:05:17;3.27;;;1.17;;
1719;SDS011;857;52.872;9.692;2024-01-15T09:07:45;2.57;;;1.10;;
1719;SDS011;857;52.872;9.692;2024-01-15T09:10:13;3.53;;;0.93;;
1719;SDS011;857;52.872;9.692;2024-01-15T09:12:41;2.03;;;1.40;;
1719;SDS011;857;52.872;9.692;2024-01-15T09:15:09;2.60;;;1.10;;
1719;SDS011;857;52.872;9.692;2024-01-15T09:17:38;2.10;;;1.30;;
1719;SDS011;857;52.872;9.692;2024-01-15T09:20:07;3.30;;;1.53;;
1719;SDS011;857;52.872;9.692;2024-01-15T09:22:35;4.20;;;1.60;;
1719;SDS011;857;52.872;9.692;2024-01-15T09:25:06;2.13;;;1.43;;
1719;SDS011;857;52.872;9.692;2024-01-15T09:27:35;2.60;;;1.20;;
1719;SDS011;857;52.872;9.692;2024-01-15T09:30:03;2.27;;;1.20;;
1719;SDS011;857;52.872;9.692;2024-01-15T09:32:30;3.70;;;1.30;;
1719;SDS011;857;52.872;9.692;2024-01-15T09:35:00;6.50;;;1.60;;
1719;SDS011;857;52.872;9.692;2024-01-15T09:37:28;4.40;;;1.37;;
1719;SDS011;857;52.872;9.692;2024-01-15T09:39:55;6.70;;;1.63;;
1719;SDS011;857;52.872;9.692;2024-01-15T09:42:23;2.40;;;0.83;;
1719;SDS011;857;52.872;9.692;2024-01-15T09:44:52;3.20;;;1.33;;
1719;SDS011;857;52.872;9.692;2024-01-15T09:47:20;4.93;;;1.50;;
1719;SDS011;857;52.872;9.692;2024-01-15T09:49:50;2.10;;;1.07;;
1719;SDS011;857;52.872;9.692;2024-01-15T09:52:19;5.30;;;1.33;;
1719;SDS011;857;52.872;9.692;2024-01-15T09:54:46;1.47;;;0.87;;
1719;SDS011;857;52.872;9.692;2024-01-15T09:57:14;4.57;;;1.00;;
1719;SDS011;857;52.872;9.692;2024-01-15T09:59:42;3.40;;;1.47;;
1719;SDS011;857;52.872;9.692;2024-01-15T10:02:10;2.83;;;1.47;;
1719;SDS011;857;52.872;9.692;2024-01-15T10:04:41;6.80;;;1.70;;
1719;SDS011;857;52.872;9.692;2024-01-15T10:07:08;4.00;;;1.50;;
1719;SDS011;857;52.872;9.692;2024-01-15T10:09:38;4.13;;;1.20;;
1719;SDS011;857;52.872;9.692;2024-01-15T10:12:06;9.43;;;2.30;;
1719;SDS011;857;52.872;9.692;2024-01-15T10:14:34;3.67;;;2.10;;
1719;SDS011;857;52.872;9.692;2024-01-15T10:17:03;2.37;;;1.23;;
1719;SDS011;857;52.872;9.692;2024-01-15T10:19:39;3.87;;;1.50;;
1719;SDS011;857;52.872;9.692;2024-01-15T10:22:07;7.27;;;1.40;;
1719;SDS011;857;52.872;9.692;2024-01-15T10:24:35;4.03;;;1.20;;
1719;SDS011;857;52.872;9.692;2024-01-15T10:27:06;6.00;;;1.17;;
1719;SDS011;857;52.872;9.692;2024-01-15T10:29:34;5.40;;;1.33;;
1719;SDS011;857;52.872;9.692;2024-01-15T10:32:02;9.70;;;1.30;;
1719;SDS011;857;52.872;9.692;2024-01-15T10:34:30;3.13;;;1.40;;
1719;SDS011;857;52.872;9.692;2024-01-15T10:36:58;7.83;;;1.80;;
1719;SDS011;857;52.872;9.692;2024-01-15T10:39:26;1.63;;;0.77;;
1719;SDS011;857;52.872;9.692;2024-01-15T10:41:54;2.00;;;0.73;;
1719;SDS011;857;52.872;9.692;2024-01-15T10:44:23;1.17;;;0.73;;
1719;SDS011;857;52.872;9.692;2024-01-15T10:46:51;7.10;;;1.90;;
1719;SDS011;857;52.872;9.692;2024-01-15T10:49:18;3.03;;;1.33;;
1719;SDS011;857;52.872;9.692;2024-01-15T10:51:47;2.80;;;1.67;;
1719;SDS011;857;52.872;9.692;2024-01-15T10:54:15;5.30;;;1.73;;
1719;SDS011;857;52.872;9.692;2024-01-15T10:56:43;2.50;;;1.03;;
1719;SDS011;857;52.872;9.692;2024-01-15T10:59:12;1.50;;;0.83;;
1719;SDS011;857;52.872;9.692;2024-01-15T11:01:42;1.60;;;0.87;;
1719;SDS011;857;52.872;9.692;2024-01-15T11:04:12;2.03;;;1.17;;
1719;SDS011;857;52.872;9.692;2024-01-15T11:06:41;4.03;;;1.63;;
1719;SDS011;857;52.872;9.692;2024-01-15T11:09:09;4.13;;;1.37;;
1719;SDS011;857;52.872;9.692;2024-01-15T11:11:40;5.33;;;1.40;;
1719;SDS011;857;52.872;9.692;2024-01-15T11:14:07;2.67;;;1.40;;
1719;SDS011;857;52.872;9.692;2024-01-15T11:16:56;3.23;;;1.70;;
1719;SDS011;857;52.872;9.692;2024-01-15T11:19:25;3.83;;;1.40;;
1719;SDS011;857;52.872;9.692;2024-01-15T11:21:52;1.73;;;1.00;;
1719;SDS011;857;52.872;9.692;2024-01-15T11:24:33;6.30;;;1.40;;
1719;SDS011;857;52.872;9.692;2024-01-15T11:27:00;3.87;;;1.83;;
1719;SDS011;857;52.872;9.692;2024-01-15T11:29:29;4.83;;;1.53;;
1719;SDS011;857;52.872;9.692;2024-01-15T11:31:57;3.47;;;1.50;;
1719;SDS011;857;52.872;9.692;2024-01-15T11:37:12;2.73;;;1.10;;
1719;SDS011;857;52.872;9.692;2024-01-15T11:39:40;13.07;;;2.37;;
1719;SDS011;857;52.872;9.692;2024-01-15T11:42:10;3.17;;;1.63;;
1719;SDS011;857;52.872;9.692;2024-01-15T11:44:38;5.20;;;1.97;;
1719;SDS011;857;52.872;9.692;2024-01-15T11:47:07;3.30;;;1.73;;
1719;SDS011;857;52.872;9.692;2024-01-15T11:49:53;5.90;;;1.67;;
1719;SDS011;857;52.872;9.692;2024-01-15T11:52:26;2.67;;;1.57;;
1719;SDS011;857;52.872;9.692;2024-01-15T11:54:55;2.73;;;1.30;;
1719;SDS011;857;52.872;9.692;2024-01-15T11:57:25;3.43;;;1.47;;
1719;SDS011;857;52.872;9.692;2024-01-15T11:59:54;3.67;;;2.63;;
1719;SDS011;857;52.872;9.692;2024-01-15T12:02:23;2.13;;;1.33;;
1719;SDS011;857;52.872;9.692;2024-01-15T12:04:51;6.50;;;1.80;;
1719;SDS011;857;52.872;9.692;2024-01-15T12:07:19;2.70;;;1.70;;
1719;SDS011;857;52.872;9.692;2024-01-15T12:09:47;2.97;;;1.63;;
1719;SDS011;857;52.872;9.692;2024-01-15T12:12:16;4.83;;;1.60;;
1719;SDS011;857;52.872;9.692;2024-01-15T12:14:46;3.10;;;1.83;;
1719;SDS011;857;52.872;9.692;2024-01-15T12:17:14;3.30;;;1.50;;
1719;SDS011;857;52.872;9.692;2024-01-15T12:19:43;5.60;;;1.80;;
1719;SDS011;857;52.872;9.692;2024-01-15T12:22:11;4.90;;;1.73;;
1719;SDS011;857;52.872;9.692;2024-01-15T12:24:38;4.93;;;2.00;;
1719;SDS011;857;52.872;9.692;2024-01-15T12:27:06;2.53;;;1.60;;
1719;SDS011;857;52.872;9.692;2024-01-15T12:29:34;6.97;;;2.30;;
1719;SDS011;857;52.872;9.692;2024-01-15T12:32:02;3.93;;;1.53;;
1719;SDS011;857;52.872;9.692;2024-01-15T12:34:30;3.63;;;1.90;;
1719;SDS011;857;52.872;9.692;2024-01-15T12:37:02;2.90;;;1.80;;
1719;SDS011;857;52.872;9.692;2024-01-15T12:39:30;3.50;;;1.67;;
1719;SDS011;857;52.872;9.692;2024-01-15T12:41:58;4.40;;;1.93;;
1719;SDS011;857;52.872;9.692;2024-01-15T12:44:26;5.87;;;1.30;;
1719;SDS011;857;52.872;9.692;2024-01-15T12:46:54;5.80;;;1.70;;
1719;SDS011;857;52.872;9.692;2024-01-15T12:49:22;5.10;;;1.53;;
1719;SDS011;857;52.872;9.692;2024-01-15T12:51:54;5.00;;;1.97;;
1719;SDS011;857;52.872;9.692;2024-01-15T12:54:26;5.17;;;2.00;;
1719;SDS011;857;52.872;9.692;2024-01-15T12:56:53;4.00;;;2.33;;
1719;SDS011;857;52.872;9.692;2024-01-15T12:59:21;1.60;;;1.37;;
1719;SDS011;857;52.872;9.692;2024-01-15T13:01:49;2.40;;;1.27;;
1719;SDS011;857;52.872;9.692;2024-01-15T13:04:20;3.40;;;1.57;;
1719;SDS011;857;52.872;9.692;2024-01-15T13:06:49;3.73;;;2.10;;
1719;SDS011;857;52.872;9.692;2024-01-15T13:09:16;6.93;;;1.87;;
1719;SDS011;857;52.872;9.692;2024-01-15T13:11:45;5.60;;;2.10;;
1719;SDS011;857;52.872;9.692;2024-01-15T13:14:13;4.90;;;2.10;;
1719;SDS011;857;52.872;9.692;2024-01-15T13:16:41;6.40;;;1.93;;
1719;SDS011;857;52.872;9.692;2024-01-15T13:19:09;4.17;;;2.53;;
1719;SDS011;857;52.872;9.692;2024-01-15T13:21:38;2.60;;;1.60;;
1719;SDS011;857;52.872;9.692;2024-01-15T13:24:06;4.10;;;2.27;;
1719;SDS011;857;52.872;9.692;2024-01-15T13:26:34;4.93;;;2.10;;
1719;SDS011;857;52.872;9.692;2024-01-15T13:29:04;4.23;;;2.13;;
1719;SDS011;857;52.872;9.692;2024-01-15T13:31:32;3.33;;;1.83;;
1719;SDS011;857;52.872;9.692;2024-01-15T13:34:00;3.00;;;2.20;;
1719;SDS011;857;52.872;9.692;2024-01-15T13:36:28;4.70;;;2.27;;
1719;SDS011;857;52.872;9.692;2024-01-15T13:38:56;6.67;;;3.03;;
1719;SDS011;857;52.872;9.692;2024-01-15T13:41:24;3.47;;;2.07;;
1719;SDS011;857;52.872;9.692;2024-01-15T13:43:53;2.27;;;1.83;;
1719;SDS011;857;52.872;9.692;2024-01-15T13:46:23;8.20;;;2.33;;
1719;SDS011;857;52.872;9.692;2024-01-15T13:48:52;1.83;;;1.30;;
1719;SDS011;857;52.872;9.692;2024-01-15T13:51:21;3.00;;;1.70;;
1719;SDS011;857;52.872;9.692;2024-01-15T13:53:49;4.00;;;1.73;;
1719;SDS011;857;52.872;9.692;2024-01-15T13:56:17;2.13;;;1.17;;
1719;SDS011;857;52.872;9.692;2024-01-15T13:58:44;2.60;;;1.50;;
1719;SDS011;857;52.872;9.692;2024-01-15T14:01:13;3.00;;;2.03;;
1719;SDS011;857;52.872;9.692;2024-01-15T14:03:42;5.00;;;2.53;;
1719;SDS011;857;52.872;9.692;2024-01-15T14:06:10;3.53;;;2.27;;
1719;SDS011;857;52.872;9.692;2024-01-15T14:08:38;5.70;;;1.93;;
1719;SDS011;857;52.872;9.692;2024-01-15T14:11:05;6.97;;;1.87;;
1719;SDS011;857;52.872;9.692;2024-01-15T14:13:33;3.17;;;1.67;;
1719;SDS011;857;52.872;9.692;2024-01-15T14:16:01;2.80;;;1.80;;
1719;SDS011;857;52.872;9.692;2024-01-15T14:18:29;3.27;;;2.10;;
1719;SDS011;857;52.872;9.692;2024-01-15T14:20:58;8.73;;;2.23;;
1719;SDS011;857;52.872;9.692;2024-01-15T14:23:25;4.30;;;1.67;;
1719;SDS011;857;52.872;9.692;2024-01-15T14:25:53;3.97;;;2.20;;
1719;SDS011;857;52.872;9.692;2024-01-15T14:28:21;14.30;;;2.90;;
1719;SDS011;857;52.872;9.692;2024-01-15T14:30:49;4.70;;;2.00;;
1719;SDS011;857;52.872;9.692;2024-01-15T14:33:17;5.40;;;2.57;;
1719;SDS011;857;52.872;9.692;2024-01-15T14:35:46;5.77;;;2.27;;
1719;SDS011;857;52.872;9.692;2024-01-15T14:38:15;6.03;;;2.43;;
1719;SDS011;857;52.872;9.692;2024-01-15T14:40:42;2.90;;;2.30;;
1719;SDS011;857;52.872;9.692;2024-01-15T14:43:10;3.70;;;1.87;;
1719;SDS011;857;52.872;9.692;2024-01-15T14:45:38;3.87;;;2.40;;
1719;SDS011;857;52.872;9.692;2024-01-15T14:48:06;6.90;;;2.30;;
1719;SDS011;857;52.872;9.692;2024-01-15T14:50:33;3.93;;;2.83;;
1719;SDS011;857;52.872;9.692;2024-01-15T14:53:01;5.67;;;2.47;;
1719;SDS011;857;52.872;9.692;2024-01-15T14:55:30;6.47;;;3.03;;
1719;SDS011;857;52.872;9.692;2024-01-15T14:57:59;4.63;;;2.80;;
1719;SDS011;857;52.872;9.692;2024-01-15T15:00:26;11.57;;;3.43;;
1719;SDS011;857;52.872;9.692;2024-01-15T15:02:54;4.50;;;2.87;;
1719;SDS011;857;52.872;9.692;2024-01-15T15:05:22;3.07;;;2.53;;
1719;SDS011;857;52.872;9.692;2024-01-15T15:07:50;5.97;;;3.40;;
1719;SDS011;857;52.872;9.692;2024-01-15T15:10:18;3.20;;;2.87;;
1719;SDS011;857;52.872;9.692;2024-01-15T15:12:47;2.17;;;1.80;;
1719;SDS011;857;52.872;9.692;2024-01-15T15:15:15;7.27;;;2.90;;
1719;SDS011;857;52.872;9.692;2024-01-15T15:17:43;6.20;;;2.77;;
1719;SDS011;857;52.872;9.692;2024-01-15T15:20:11;4.03;;;2.80;;
1719;SDS011;857;52.872;9.692;2024-01-15T15:22:39;4.20;;;2.90;;
1719;SDS011;857;52.872;9.692;2024-01-15T15:25:07;8.43;;;2.33;;
1719;SDS011;857;52.872;9.692;2024-01-15T15:27:35;3.40;;;2.23;;
1719;SDS011;857;52.872;9.692;2024-01-15T15:30:04;5.60;;;2.90;;
1719;SDS011;857;52.872;9.692;2024-01-15T15:32:32;9.73;;;2.97;;
1719;SDS011;857;52.872;9.692;2024-01-15T15:35:00;3.13;;;2.57;;
1719;SDS011;857;52.872;9.692;2024-01-15T15:37:28;5.23;;;2.77;;
1719;SDS011;857;52.872;9.692;2024-01-15T15:39:55;8.17;;;3.30;;